createdAt,value
2022-09-10T00:01:44.811Z,64.20
2022-09-10T00:04:16.206Z,64.20
2022-09-10T00:06:46.923Z,64.30
2022-09-10T00:09:14.266Z,64.30
2022-09-10T00:11:42.188Z,64.90
2022-09-10T00:14:15.720Z,64.30
2022-09-10T00:16:43.106Z,64.50
2022-09-10T00:19:09.985Z,64.40
2022-09-10T00:21:36.804Z,64.50
2022-09-10T00:24:05.455Z,64.50
2022-09-10T00:26:40.291Z,64.60
2022-09-10T00:29:17.424Z,64.60
2022-09-10T00:31:45.242Z,64.60
2022-09-10T00:34:16.239Z,64.50
2022-09-10T00:36:44.305Z,64.50
2022-09-10T00:39:18.354Z,64.50
2022-09-10T00:41:52.434Z,64.80
2022-09-10T00:44:40.068Z,64.60
2022-09-10T00:47:31.030Z,65.10
2022-09-10T00:50:15.990Z,64.90
2022-09-10T00:52:48.272Z,64.70
2022-09-10T00:55:18.879Z,64.50
2022-09-10T00:57:54.828Z,64.50
2022-09-10T01:00:22.964Z,64.60
2022-09-10T01:02:52.287Z,64.50
2022-09-10T01:05:23.341Z,64.60
2022-09-10T01:07:50.052Z,64.60
2022-09-10T01:10:29.083Z,64.60
2022-09-10T01:13:19.067Z,64.70
2022-09-10T01:16:05.159Z,65.00
2022-09-10T01:18:59.115Z,64.80
2022-09-10T01:21:55.725Z,64.90
2022-09-10T01:24:52.609Z,65.00
2022-09-10T01:27:40.333Z,64.70
2022-09-10T01:30:23.958Z,65.10
2022-09-10T01:33:03.008Z,65.10
2022-09-10T01:36:00.371Z,64.80
2022-09-10T01:38:35.580Z,64.80
2022-09-10T01:41:07.748Z,64.90
2022-09-10T01:43:44.915Z,65.00
2022-09-10T01:46:39.481Z,64.90
2022-09-10T01:49:15.240Z,65.20
2022-09-10T01:52:45.271Z,65.10
2022-09-10T01:55:35.351Z,65.40
2022-09-10T01:58:16.528Z,65.20
2022-09-10T02:00:55.402Z,65.30
2022-09-10T02:03:28.481Z,65.20
2022-09-10T02:06:03.008Z,65.20
2022-09-10T02:08:37.570Z,65.30
2022-09-10T02:11:10.348Z,65.20
2022-09-10T02:13:40.209Z,65.30
2022-09-10T02:16:28.242Z,65.20
2022-09-10T02:18:57.730Z,65.30
2022-09-10T02:21:29.516Z,65.30
2022-09-10T02:24:05.749Z,65.40
2022-09-10T02:26:38.223Z,65.60
2022-09-10T02:29:08.900Z,65.50
2022-09-10T02:31:35.974Z,65.60
2022-09-10T02:34:05.964Z,65.60
2022-09-10T02:36:35.739Z,66.20
2022-09-10T02:39:06.123Z,65.70
2022-09-10T02:41:35.539Z,65.70
2022-09-10T02:44:07.306Z,65.70
2022-09-10T02:46:36.561Z,65.90
2022-09-10T02:49:06.327Z,65.70
2022-09-10T02:51:37.055Z,65.80
2022-09-10T02:54:04.578Z,65.80
2022-09-10T02:56:34.158Z,65.80
2022-09-10T02:59:06.283Z,65.80
2022-09-10T03:01:36.377Z,65.80
2022-09-10T03:04:05.811Z,65.80
2022-09-10T03:06:32.850Z,65.70
2022-09-10T03:08:59.571Z,65.70
2022-09-10T03:11:28.615Z,65.80
2022-09-10T03:13:55.754Z,65.80
2022-09-10T03:16:27.504Z,65.80
2022-09-10T03:18:56.994Z,65.80
2022-09-10T03:21:27.384Z,65.90
2022-09-10T03:23:58.722Z,65.80
2022-09-10T03:26:30.633Z,65.80
2022-09-10T03:28:59.623Z,65.80
2022-09-10T03:31:29.129Z,65.80
2022-09-10T03:34:01.293Z,65.80
2022-09-10T03:36:31.313Z,65.80
2022-09-10T03:39:01.379Z,65.90
2022-09-10T03:41:31.857Z,65.90
2022-09-10T03:44:03.308Z,65.80
2022-09-10T03:46:29.999Z,65.80
2022-09-10T03:48:57.044Z,65.80
2022-09-10T03:51:23.745Z,65.80
2022-09-10T03:53:50.431Z,66.40
2022-09-10T03:56:20.841Z,66.40
2022-09-10T03:58:49.394Z,65.90
2022-09-10T04:01:19.918Z,65.90
2022-09-10T04:03:47.396Z,66.00
2022-09-10T04:06:19.271Z,65.90
2022-09-10T04:08:54.225Z,66.00
2022-09-10T04:11:27.644Z,66.00
2022-09-10T04:13:56.697Z,66.00
2022-09-10T04:16:23.628Z,66.00
2022-09-10T04:18:51.042Z,65.90
2022-09-10T04:21:18.168Z,65.90
2022-09-10T04:23:45.670Z,66.00
2022-09-10T04:26:15.645Z,65.90
2022-09-10T04:28:47.496Z,66.10
2022-09-10T04:31:19.862Z,66.00
2022-09-10T04:33:49.427Z,66.00
2022-09-10T04:36:19.148Z,66.10
2022-09-10T04:38:48.762Z,66.20
2022-09-10T04:41:19.465Z,66.20
2022-09-10T04:43:46.550Z,66.20
2022-09-10T04:46:13.442Z,66.20
2022-09-10T04:48:40.328Z,66.30
2022-09-10T04:51:16.953Z,66.30
2022-09-10T04:53:51.461Z,66.30
2022-09-10T04:56:23.624Z,66.30
2022-09-10T04:58:50.300Z,66.40
2022-09-10T05:01:33.297Z,66.30
2022-09-10T05:04:00.160Z,66.50
2022-09-10T05:06:26.883Z,66.30
2022-09-10T05:08:56.254Z,66.30
2022-09-10T05:11:25.585Z,66.40
2022-09-10T05:13:54.520Z,66.50
2022-09-10T05:16:26.543Z,66.50
2022-09-10T05:18:56.111Z,66.70
2022-09-10T05:21:26.211Z,66.50
2022-09-10T05:23:52.904Z,66.60
2022-09-10T05:26:19.703Z,66.70
2022-09-10T05:28:48.684Z,66.80
2022-09-10T05:31:17.119Z,66.80
2022-09-10T05:33:48.701Z,66.80
2022-09-10T05:36:17.755Z,67.50
2022-09-10T05:38:46.766Z,67.00
2022-09-10T05:41:13.722Z,67.10
2022-09-10T05:43:42.032Z,67.10
2022-09-10T05:46:08.972Z,67.10
2022-09-10T05:48:39.658Z,67.10
2022-09-10T05:51:10.474Z,67.10
2022-09-10T05:53:38.153Z,67.20
2022-09-10T05:56:07.737Z,67.30
2022-09-10T05:58:34.742Z,67.30
2022-09-10T06:01:04.772Z,67.40
2022-09-10T06:03:34.177Z,67.60
2022-09-10T06:06:03.209Z,67.60
2022-09-10T06:08:32.697Z,67.60
2022-09-10T06:11:05.719Z,67.60
2022-09-10T06:13:35.657Z,67.70
2022-09-10T06:16:04.940Z,67.80
2022-09-10T06:18:37.413Z,67.80
2022-09-10T06:21:13.186Z,68.10
2022-09-10T06:23:45.226Z,68.20
2022-09-10T06:26:18.357Z,68.20
2022-09-10T06:28:50.143Z,68.50
2022-09-10T06:31:19.938Z,68.30
2022-09-10T06:33:48.911Z,68.40
2022-09-10T06:36:18.365Z,68.60
2022-09-10T06:38:49.677Z,68.80
2022-09-10T06:41:19.416Z,68.90
2022-09-10T06:43:48.799Z,68.90
2022-09-10T06:49:11.662Z,69.20
2022-09-10T06:51:43.179Z,69.20
2022-09-10T06:54:12.701Z,69.20
2022-09-10T06:56:46.820Z,69.30
2022-09-10T06:59:18.173Z,69.40
2022-09-10T07:01:48.129Z,69.40
2022-09-10T07:04:20.208Z,69.50
2022-09-10T07:06:49.456Z,69.50
2022-09-10T07:09:16.348Z,69.50
2022-09-10T07:11:45.463Z,69.50
2022-09-10T07:14:13.983Z,69.60
2022-09-10T07:16:47.518Z,69.70
2022-09-10T07:19:21.230Z,69.80
2022-09-10T07:21:48.011Z,69.90
2022-09-10T07:24:17.120Z,69.90
2022-09-10T07:26:46.978Z,69.90
2022-09-10T07:29:13.659Z,70.00
2022-09-10T07:31:45.638Z,70.00
2022-09-10T07:34:14.816Z,70.20
2022-09-10T07:36:43.855Z,70.00
2022-09-10T07:39:13.465Z,70.00
2022-09-10T07:41:40.338Z,69.80
2022-09-10T07:44:14.141Z,69.70
2022-09-10T07:46:41.438Z,69.90
2022-09-10T07:49:12.333Z,69.70
2022-09-10T07:51:41.153Z,69.90
2022-09-10T07:54:07.922Z,69.90
2022-09-10T07:56:35.189Z,70.00
2022-09-10T07:59:04.061Z,70.00
2022-09-10T08:01:31.686Z,70.00
2022-09-10T08:03:59.039Z,70.00
2022-09-10T08:06:28.425Z,70.00
2022-09-10T08:08:57.650Z,70.00
2022-09-10T08:11:27.011Z,70.20
2022-09-10T08:13:56.848Z,70.10
2022-09-10T08:16:28.800Z,70.30
2022-09-10T08:19:00.269Z,70.40
2022-09-10T08:21:30.159Z,70.20
2022-09-10T08:23:59.417Z,70.30
2022-09-10T08:26:27.600Z,70.30
2022-09-10T08:28:57.767Z,70.30
2022-09-10T08:31:29.150Z,70.30
2022-09-10T08:33:57.322Z,70.30
2022-09-10T08:36:25.608Z,70.30
2022-09-10T08:38:59.882Z,70.20
2022-09-10T08:41:57.986Z,70.80
2022-09-10T08:44:59.993Z,70.20
2022-09-10T08:47:47.624Z,70.30
2022-09-10T08:50:26.646Z,70.30
2022-09-10T08:53:57.234Z,70.10
2022-09-10T08:56:25.899Z,70.40
2022-09-10T08:59:17.097Z,69.90
2022-09-10T09:01:56.806Z,70.20
2022-09-10T09:04:52.420Z,70.30
2022-09-10T09:07:21.314Z,70.60
2022-09-10T09:09:54.380Z,70.30
2022-09-10T09:12:58.639Z,70.40
2022-09-10T09:16:12.287Z,70.70
2022-09-10T09:19:06.089Z,70.40
2022-09-10T09:21:54.056Z,70.20
2022-09-10T09:25:12.167Z,70.30
2022-09-10T09:27:42.206Z,70.10
2022-09-10T09:30:23.217Z,70.00
2022-09-10T09:32:50.723Z,70.30
2022-09-10T09:36:25.429Z,70.30
2022-09-10T09:38:56.402Z,71.30
2022-09-10T09:41:51.959Z,70.40
2022-09-10T09:44:40.731Z,70.70
2022-09-10T09:47:09.113Z,71.30
2022-09-10T09:49:35.885Z,71.00
2022-09-10T09:52:20.887Z,71.10
2022-09-10T09:55:17.591Z,71.30
2022-09-10T09:57:44.632Z,71.30
2022-09-10T10:00:31.391Z,71.00
2022-09-10T10:03:25.801Z,71.40
2022-09-10T10:06:12.415Z,71.40
2022-09-10T10:09:00.005Z,71.60
2022-09-10T10:11:57.049Z,71.70
2022-09-10T10:14:39.081Z,72.00
2022-09-10T10:17:32.185Z,71.80
2022-09-10T10:20:14.838Z,71.90
2022-09-10T10:22:46.575Z,71.80
2022-09-10T10:25:36.438Z,71.50
2022-09-10T10:28:15.505Z,71.80
2022-09-10T10:30:50.714Z,71.40
2022-09-10T10:33:23.255Z,71.40
2022-09-10T10:36:21.314Z,71.50
2022-09-10T10:39:11.773Z,71.60
2022-09-10T10:42:09.713Z,71.60
2022-09-10T10:45:31.764Z,71.50
2022-09-10T10:48:30.681Z,71.40
2022-09-10T10:51:40.693Z,71.30
2022-09-10T10:54:37.380Z,71.50
2022-09-10T10:57:39.939Z,71.50
2022-09-10T11:00:17.301Z,71.50
2022-09-10T11:03:00.211Z,71.60
2022-09-10T11:05:52.986Z,71.70
2022-09-10T11:09:04.864Z,72.10
2022-09-10T11:12:03.651Z,72.10
2022-09-10T11:14:48.887Z,72.20
2022-09-10T11:17:26.981Z,72.60
2022-09-10T11:20:29.695Z,72.70
2022-09-10T11:23:29.885Z,72.80
2022-09-10T11:26:28.995Z,72.10
2022-09-10T11:29:36.304Z,71.90
2022-09-10T11:32:25.580Z,72.20
2022-09-10T11:35:08.599Z,72.20
2022-09-10T11:38:04.768Z,71.80
2022-09-10T11:40:52.293Z,71.30
2022-09-10T11:43:34.337Z,71.00
2022-09-10T11:46:12.888Z,70.60
2022-09-10T11:48:51.792Z,70.40
2022-09-10T11:51:36.852Z,70.30
2022-09-10T11:54:10.047Z,70.20
2022-09-10T11:57:03.137Z,70.30
2022-09-10T11:59:57.429Z,70.00
2022-09-10T12:02:54.402Z,69.50
2022-09-10T12:06:01.790Z,69.40
2022-09-10T12:08:42.919Z,69.10
2022-09-10T12:11:47.787Z,69.10
2022-09-10T12:14:22.198Z,68.80
2022-09-10T12:17:39.437Z,68.40
2022-09-10T12:20:18.742Z,68.00
2022-09-10T12:22:52.132Z,68.40
2022-09-10T12:25:21.215Z,68.20
2022-09-10T12:27:56.749Z,68.10
2022-09-10T12:30:29.213Z,67.40
2022-09-10T12:33:27.624Z,67.10
2022-09-10T12:36:01.393Z,67.30
2022-09-10T12:38:49.064Z,67.30
2022-09-10T12:41:24.229Z,67.70
2022-09-10T12:43:59.037Z,67.10
2022-09-10T12:46:31.237Z,67.60
2022-09-10T12:49:02.863Z,67.10
2022-09-10T12:51:40.498Z,67.00
2022-09-10T12:54:37.254Z,66.80
2022-09-10T12:57:12.644Z,66.70
2022-09-10T13:00:04.354Z,67.30
2022-09-10T13:02:40.166Z,67.00
2022-09-10T13:05:29.481Z,66.60
2022-09-10T13:08:04.032Z,66.10
2022-09-10T13:10:31.474Z,66.20
2022-09-10T13:13:07.999Z,66.50
2022-09-10T13:15:39.161Z,66.30
2022-09-10T13:18:35.797Z,66.40
2022-09-10T13:21:24.367Z,65.90
2022-09-10T13:23:54.753Z,65.80
2022-09-10T13:26:38.224Z,65.40
2022-09-10T13:29:32.442Z,65.60
2022-09-10T13:32:37.394Z,65.30
2022-09-10T13:35:26.270Z,66.00
2022-09-10T13:38:14.088Z,65.20
2022-09-10T13:41:10.968Z,65.00
2022-09-10T13:44:38.218Z,64.70
2022-09-10T13:47:18.540Z,65.20
2022-09-10T13:50:16.818Z,65.20
2022-09-10T13:52:51.962Z,65.00
2022-09-10T13:55:34.019Z,65.20
2022-09-10T13:58:13.921Z,64.10
2022-09-10T14:00:56.585Z,63.40
2022-09-10T14:03:30.629Z,62.80
2022-09-10T14:06:10.412Z,62.00
2022-09-10T14:09:02.954Z,62.40
2022-09-10T14:11:37.392Z,61.90
2022-09-10T14:14:17.552Z,61.50
2022-09-10T14:16:53.839Z,61.40
2022-09-10T14:19:39.578Z,61.40
2022-09-10T14:22:10.068Z,60.90
2022-09-10T14:24:39.916Z,61.20
2022-09-10T14:27:18.433Z,60.70
2022-09-10T14:29:50.255Z,60.70
2022-09-10T14:32:36.151Z,60.80
2022-09-10T14:35:38.102Z,60.70
2022-09-10T14:38:29.288Z,60.70
2022-09-10T14:41:04.348Z,60.80
2022-09-10T14:43:45.164Z,60.80
2022-09-10T14:47:05.523Z,61.10
2022-09-10T14:49:41.250Z,61.30
2022-09-10T14:52:11.259Z,61.40
2022-09-10T14:54:38.662Z,61.70
2022-09-10T14:57:13.763Z,61.70
2022-09-10T14:59:50.774Z,61.70
2022-09-10T15:02:28.769Z,61.50
2022-09-10T15:04:55.616Z,61.70
2022-09-10T15:07:24.941Z,62.00
2022-09-10T15:09:53.314Z,62.40
2022-09-10T15:12:35.668Z,62.50
2022-09-10T15:15:02.709Z,63.50
2022-09-10T15:17:29.526Z,63.20
2022-09-10T15:19:56.242Z,63.40
2022-09-10T15:22:31.494Z,63.70
2022-09-10T15:25:16.134Z,64.30
2022-09-10T15:27:47.779Z,64.80
2022-09-10T15:30:16.750Z,65.20
2022-09-10T15:32:46.019Z,65.50
2022-09-10T15:35:15.066Z,65.80
2022-09-10T15:37:46.516Z,66.10
2022-09-10T15:40:18.270Z,66.30
2022-09-10T15:42:49.750Z,66.60
2022-09-10T15:45:19.104Z,66.70
2022-09-10T15:47:48.084Z,67.00
2022-09-10T15:50:15.696Z,67.20
2022-09-10T15:52:44.910Z,67.40
2022-09-10T15:55:14.447Z,67.70
2022-09-10T15:57:46.005Z,68.00
2022-09-10T16:00:15.539Z,68.20
2022-09-10T16:02:42.348Z,68.50
2022-09-10T16:05:09.708Z,68.60
2022-09-10T16:07:39.499Z,68.70
2022-09-10T16:10:10.780Z,68.80
2022-09-10T16:12:37.538Z,69.70
2022-09-10T16:15:07.779Z,69.20
2022-09-10T16:17:37.024Z,69.40
2022-09-10T16:20:08.821Z,69.40
2022-09-10T16:22:37.863Z,69.40
2022-09-10T16:25:12.091Z,69.70
2022-09-10T16:27:43.038Z,69.70
2022-09-10T16:30:11.540Z,69.70
2022-09-10T16:32:40.661Z,69.70
2022-09-10T16:35:08.506Z,69.80
2022-09-10T16:37:37.402Z,69.80
2022-09-10T16:40:07.120Z,70.00
2022-09-10T16:42:36.782Z,70.00
2022-09-10T16:45:13.396Z,70.10
2022-09-10T16:47:40.145Z,70.10
2022-09-10T16:50:07.361Z,70.10
2022-09-10T16:52:35.616Z,70.20
2022-09-10T16:55:07.351Z,70.40
2022-09-10T16:57:34.558Z,70.40
2022-09-10T17:00:01.480Z,70.40
2022-09-10T17:02:30.656Z,70.40
2022-09-10T17:04:59.920Z,70.60
2022-09-10T17:07:26.665Z,70.50
2022-09-10T17:09:56.372Z,70.40
2022-09-10T17:12:27.684Z,70.40
2022-09-10T17:15:01.155Z,70.50
2022-09-10T17:17:33.040Z,70.50
2022-09-10T17:20:06.754Z,70.60
2022-09-10T17:22:35.942Z,70.50
2022-09-10T17:25:06.758Z,70.60
2022-09-10T17:27:34.743Z,70.80
2022-09-10T17:30:06.823Z,70.80
2022-09-10T17:32:34.368Z,70.80
2022-09-10T17:35:06.309Z,70.80
2022-09-10T17:37:37.979Z,71.00
2022-09-10T17:40:07.244Z,71.10
2022-09-10T17:42:36.579Z,71.10
2022-09-10T17:45:06.168Z,71.10
2022-09-10T17:47:34.299Z,71.20
2022-09-10T17:50:03.753Z,71.30
2022-09-10T17:52:35.336Z,71.30
2022-09-10T17:55:04.935Z,71.30
2022-09-10T17:57:38.665Z,71.40
2022-09-10T18:00:08.482Z,71.50
2022-09-10T18:02:42.448Z,71.40
2022-09-10T18:05:12.481Z,71.40
2022-09-10T18:07:44.701Z,71.50
2022-09-10T18:10:14.137Z,71.60
2022-09-10T18:12:41.586Z,71.50
2022-09-10T18:15:09.470Z,71.50
2022-09-10T18:17:38.792Z,71.50
2022-09-10T18:20:06.496Z,71.50
2022-09-10T18:22:34.417Z,71.50
2022-09-10T18:25:01.136Z,71.50
2022-09-10T18:27:32.657Z,71.60
2022-09-10T18:30:00.396Z,71.60
2022-09-10T18:32:29.492Z,72.20
2022-09-10T18:34:58.478Z,71.70
2022-09-10T18:37:25.725Z,71.70
2022-09-10T18:39:55.145Z,71.60
2022-09-10T18:42:24.139Z,71.60
2022-09-10T18:44:55.574Z,71.70
2022-09-10T18:47:43.737Z,71.70
2022-09-10T18:50:12.380Z,71.70
2022-09-10T18:52:41.422Z,72.30
2022-09-10T18:55:08.920Z,71.90
2022-09-10T18:57:40.512Z,72.50
2022-09-10T19:00:10.777Z,71.90
2022-09-10T19:02:40.693Z,71.90
2022-09-10T19:05:11.754Z,72.00
2022-09-10T19:07:39.037Z,71.80
2022-09-10T19:10:07.299Z,71.80
2022-09-10T19:12:36.668Z,71.80
2022-09-10T19:15:03.770Z,71.90
2022-09-10T19:17:32.732Z,71.80
2022-09-10T19:20:02.012Z,71.80
2022-09-10T19:22:28.772Z,71.70
2022-09-10T19:24:56.177Z,71.80
2022-09-10T19:27:24.225Z,71.80
2022-09-10T19:29:51.709Z,71.90
2022-09-10T19:32:21.463Z,71.80
2022-09-10T19:34:52.033Z,71.90
2022-09-10T19:37:19.628Z,72.00
2022-09-10T19:39:46.604Z,71.90
2022-09-10T19:42:13.388Z,72.00
2022-09-10T19:44:42.212Z,72.00
2022-09-10T19:47:11.007Z,72.00
2022-09-10T19:49:42.242Z,72.00
2022-09-10T19:52:14.704Z,72.00
2022-09-10T19:54:41.412Z,72.00
2022-09-10T19:57:08.165Z,72.10
2022-09-10T19:59:35.519Z,72.10
2022-09-10T20:02:07.090Z,72.00
2022-09-10T20:04:35.562Z,72.10
2022-09-10T20:07:02.282Z,72.00
2022-09-10T20:09:29.006Z,72.00
2022-09-10T20:11:55.936Z,72.00
2022-09-10T20:14:22.600Z,72.00
2022-09-10T20:16:54.590Z,72.00
2022-09-10T20:19:22.015Z,72.10
2022-09-10T20:21:51.458Z,72.00
2022-09-10T20:24:20.810Z,72.00
2022-09-10T20:26:50.067Z,71.90
2022-09-10T20:29:18.453Z,72.00
2022-09-10T20:31:48.710Z,72.00
2022-09-10T20:34:20.921Z,71.90
2022-09-10T20:36:51.891Z,71.90
2022-09-10T20:39:25.105Z,71.90
2022-09-10T20:41:51.808Z,71.90
2022-09-10T20:44:19.843Z,71.80
2022-09-10T20:46:51.460Z,71.80
2022-09-10T20:49:21.252Z,72.00
2022-09-10T20:51:50.449Z,72.00
2022-09-10T20:54:21.701Z,71.90
2022-09-10T20:56:50.723Z,72.00
2022-09-10T20:59:19.069Z,72.10
2022-09-10T21:01:47.167Z,72.10
2022-09-10T21:04:17.080Z,72.10
2022-09-10T21:06:44.065Z,72.20
2022-09-10T21:09:16.064Z,72.30
2022-09-10T21:11:42.902Z,72.40
2022-09-10T21:14:17.277Z,72.40
2022-09-10T21:16:47.115Z,72.60
2022-09-10T21:19:22.118Z,72.60
2022-09-10T21:21:49.242Z,72.80
2022-09-10T21:24:22.504Z,72.80
2022-09-10T21:26:53.163Z,72.90
2022-09-10T21:29:21.401Z,73.00
2022-09-10T21:31:54.543Z,73.10
2022-09-10T21:34:21.303Z,73.20
2022-09-10T21:36:47.988Z,73.30
2022-09-10T21:39:20.707Z,73.20
2022-09-10T21:41:50.207Z,73.40
2022-09-10T21:44:24.876Z,73.30
2022-09-10T21:46:54.509Z,73.50
2022-09-10T21:49:24.103Z,73.40
2022-09-10T21:51:54.037Z,73.40
2022-09-10T21:54:29.451Z,73.40
2022-09-10T21:57:01.125Z,73.50
2022-09-10T21:59:34.913Z,73.50
2022-09-10T22:02:07.125Z,73.70
2022-09-10T22:04:34.790Z,73.60
2022-09-10T22:07:04.592Z,73.60
2022-09-10T22:09:32.055Z,73.60
2022-09-10T22:12:01.032Z,73.70
2022-09-10T22:14:27.717Z,73.70
2022-09-10T22:16:54.943Z,73.80
2022-09-10T22:19:27.382Z,73.90
2022-09-10T22:21:55.880Z,73.90
2022-09-10T22:24:23.115Z,73.90
2022-09-10T22:26:50.674Z,74.00
2022-09-10T22:29:19.599Z,74.10
2022-09-10T22:31:47.369Z,74.20
2022-09-10T22:34:16.827Z,74.10
2022-09-10T22:36:49.389Z,74.20
2022-09-10T22:39:24.745Z,74.20
2022-09-10T22:41:51.888Z,75.10
2022-09-10T22:44:23.584Z,74.20
2022-09-10T22:46:52.780Z,74.30
2022-09-10T22:49:19.746Z,74.20
2022-09-10T22:51:46.539Z,74.20
2022-09-10T22:54:17.275Z,74.30
2022-09-10T22:56:46.304Z,74.30
2022-09-10T22:59:17.039Z,74.30
2022-09-10T23:01:50.103Z,74.20
2022-09-10T23:04:16.886Z,74.20
2022-09-10T23:06:48.186Z,74.20
2022-09-10T23:09:18.193Z,74.20
2022-09-10T23:11:47.540Z,74.20
2022-09-10T23:14:20.628Z,74.20
2022-09-10T23:16:50.795Z,74.20
2022-09-10T23:19:23.813Z,74.30
2022-09-10T23:21:57.918Z,74.30
2022-09-10T23:24:26.538Z,74.40
2022-09-10T23:26:58.563Z,74.20
2022-09-10T23:29:25.370Z,74.20
2022-09-10T23:31:56.937Z,74.20
2022-09-10T23:34:28.780Z,74.30
2022-09-10T23:36:57.957Z,74.30
2022-09-10T23:39:27.287Z,74.30
2022-09-10T23:41:56.851Z,74.30
2022-09-10T23:44:24.489Z,74.30
2022-09-10T23:46:51.462Z,74.30
2022-09-10T23:49:18.222Z,74.30
2022-09-10T23:51:47.969Z,74.40
2022-09-10T23:54:20.722Z,74.30
2022-09-10T23:56:52.527Z,74.30
2022-09-10T23:59:19.424Z,74.20
